Terminal Aerodrome Forecast
Issued by NWS Cleveland, OH

Home | Current Version | Previous Version | Graphics & Text | Print | Product List | Glossary On
Versions: 1 2 3 4 5 6 7 8 9 10 11 12 13 14 15 16 17 18 19 20 21 22 23 24 25 26 27
000
FTUS41 KCLE 121900 AAA
TAFCLE
TAF AMD
KCLE 121920Z 1219/1324 04008KT P6SM SCT028 OVC040
      TEMPO 1219/1223 BKN028
     FM131000 01004KT 5SM -RA BKN025 OVC060
     FM131800 33012KT P6SM VCSH OVC022=

USA.gov is the U.S. government's official web portal to all federal, state and local government web resources and services.